• Join FlightAware (Why Join?)
  • Login
  • US Flag 
07:47AM EDT


 

Airport Tracker/Info


-or-


 

Live Flight TrackerFlight Track Log ✈ JBU100 ✈ 23-Sep-2013 ✈ KLAX - KFLL

Flight Track Log - Related Links

Times and Time Zones

All times are in EDT time to prevent confusion due to time zone crossing. See the JBU100 flight status page for this flight to view local times or setup timezone preferences in your user account.

Time Position Orientation Groundspeed Altitude Reporting Facility
EDT Latitude Longitude Course Direction KTS MPH feet Rate Location/Type
01:34AM 33.9470 -118.4370 263° West 174 200 600  Level FlightAware
01:34AM 33.9450 -118.4530 261° West 170 196 1,500 2,160 Climbing FlightAware
01:35AM 33.9420 -118.4710 259° West 184 212 1,900 1,260 Climbing FlightAware
01:35AM 33.9360 -118.4800 231° Southwest 192 221 2,100 900 Climbing FlightAware
01:35AM 33.9250 -118.4930 224° Southwest 211 243 2,300 600 Climbing FlightAware
01:35AM 33.9100 -118.5100 223° Southwest 238 274 2,500 960 Climbing FlightAware
01:36AM 33.8910 -118.5300 221° Southwest 264 304 3,000 2,100 Climbing FlightAware
01:36AM 33.8730 -118.5480 220° Southwest 269 310 3,900 2,760 Climbing FlightAware
01:36AM 33.8620 -118.5540 204° Southwest 270 311 4,300 2,700 Climbing FlightAware
01:36AM 33.8500 -118.5570 192° South 271 312 4,800 2,460 Climbing FlightAware
01:37AM 33.8250 -118.5530 172° South 279 321 5,600 2,280 Climbing FlightAware
01:37AM 33.8110 -118.5500 170° South 280 322 6,000 2,700 Climbing FlightAware
01:37AM 33.7880 -118.5440 168° South 279 321 7,000 2,820 Climbing FlightAware
01:37AM 33.7670 -118.5380 167° South 280 322 7,700 2,460 Climbing FlightAware
01:38AM 33.7420 -118.5320 169° South 284 327 8,500 2,640 Climbing FlightAware
01:38AM 33.7190 -118.5260 168° South 283 326 9,300 2,760 Climbing FlightAware
01:38AM 33.7040 -118.5170 153° Southeast 288 331 9,800 2,160 Climbing FlightAware
01:38AM 33.6940 -118.5050 135° Southeast 293 337 10,100 1,500 Climbing FlightAware
01:39AM 33.6880 -118.4920 119° Southeast 302 348 10,300 1,200 Climbing FlightAware
01:39AM 33.6710 -118.4340 109° East 331 381 11,000 1,320 Climbing FlightAware
01:40AM 33.6540 -118.3750 109° East 348 400 11,800 1,020 Climbing FlightAware
01:40AM 33.6450 -118.3350 105° East 366 421 12,000 1,200 Climbing FlightAware
01:41AM 33.6450 -118.2520 90° East 376 433 13,100 1,620 Climbing FlightAware
01:41AM 33.6450 -118.1710 90° East 383 441 14,100 1,500 Climbing FlightAware
01:42AM 33.6450 -118.0910 90° East 392 451 15,000 1,380 Climbing FlightAware
01:43AM 33.6450 -118.0160 90° East 401 461 15,800 1,380 Climbing FlightAware
01:43AM 33.6450 -117.9420 90° East 406 467 16,600 1,500 Climbing FlightAware
01:44AM 33.6450 -117.8590 90° East 411 473 17,500 1,320 Climbing FlightAware
01:44AM 33.6380 -117.7800 96° East 419 482 18,200 1,320 Climbing FlightAware
01:45AM 33.6290 -117.6950 97° East 425 489 19,100 1,320 Climbing FlightAware
01:45AM 33.6200 -117.6180 98° East 432 497 19,700 1,200 Climbing FlightAware
01:46AM 33.6100 -117.5290 98° East 439 505 20,500 1,200 Climbing FlightAware
01:47AM 33.6010 -117.4450 97° East 442 509 21,200 1,140 Climbing FlightAware
01:47AM 33.5910 -117.3560 98° East 447 514 21,900 1,200 Climbing FlightAware
01:48AM 33.5820 -117.2770 98° East 449 517 22,600 1,080 Climbing FlightAware
01:48AM 33.5710 -117.1840 98° East 453 521 23,200 1,020 Climbing FlightAware
01:49AM 33.5610 -117.0970 98° East 457 526 23,900 1,140 Climbing FlightAware
01:50AM 33.5520 -117.0170 98° East 458 527 24,500 960 Climbing FlightAware
01:50AM 33.5410 -116.9280 98° East 462 532 25,000 900 Climbing FlightAware
01:51AM 33.5310 -116.8380 98° East 465 535 25,600 900 Climbing FlightAware
01:51AM 33.5190 -116.7420 99° East 470 541 26,100 780 Climbing FlightAware
01:52AM 33.5100 -116.6630 98° East 474 545 26,500 840 Climbing FlightAware
01:52AM 33.4990 -116.5660 98° East 478 550 27,100 840 Climbing FlightAware
01:53AM 33.4860 -116.4630 99° East 483 556 27,600 720 Climbing FlightAware
01:54AM 33.4760 -116.3840 99° East 486 559 28,000 780 Climbing FlightAware
01:54AM 33.4640 -116.2800 98° East 490 564 28,500 720 Climbing FlightAware
01:55AM 33.4520 -116.1810 98° East 494 568 28,900 840 Climbing FlightAware
01:55AM 33.4410 -116.0980 99° East 492 566 29,500 960 Climbing FlightAware
01:56AM 33.4290 -116.0000 98° East 492 566 30,000 840 Climbing FlightAware
01:57AM 33.4170 -115.9000 98° East 493 567 30,600 900 Climbing FlightAware
01:57AM 33.4050 -115.8030 98° East 492 566 31,100 960 Climbing FlightAware
01:58AM 33.3940 -115.7190 99° East 489 563 31,700 960 Climbing FlightAware
01:58AM 33.3820 -115.6230 98° East 489 563 32,200 720 Climbing FlightAware
01:59AM 33.3700 -115.5280 99° East 491 565 32,600 660 Climbing FlightAware
02:00AM 33.3570 -115.4300 99° East 492 566 33,000 780 Climbing FlightAware
02:00AM 33.3450 -115.3430 99° East 491 565 33,500 840 Climbing FlightAware
02:01AM 33.3330 -115.2490 99° East 488 562 34,000 720 Climbing FlightAware
02:01AM 33.3200 -115.1520 99° East 487 560 34,400 660 Climbing FlightAware
02:02AM 33.3080 -115.0590 99° East 486 559 34,800 480 Climbing FlightAware
02:02AM 33.2990 -114.9900 99° East 484 557 35,000 120 Climbing FlightAware
02:03AM 33.2840 -114.8780 99° East 484 557 35,000  Level FlightAware
02:04AM 33.2660 -114.7460 99° East 486 559 35,000  Level FlightAware
02:04AM 33.2560 -114.6700 99° East 486 559 35,000  Level FlightAware
02:05AM 33.2440 -114.5800 99° East 486 559 35,000  Level FlightAware
02:06AM 33.2280 -114.4640 99° East 487 560 35,000  Level FlightAware
02:06AM 33.2170 -114.3820 99° East 487 560 35,000  Level FlightAware
02:07AM 33.2070 -114.3010 98° East 487 560 35,000  Level FlightAware
02:08AM 33.1860 -114.1580 100° East 488 562 35,000  Level FlightAware
02:08AM 33.1720 -114.0610 100° East 488 562 35,000  Level FlightAware
02:09AM 33.1560 -113.9420 99° East 488 562 35,000  Level FlightAware
02:10AM 33.1460 -113.8770 100° East 489 563 35,000  Level FlightAware
02:10AM 33.1300 -113.7690 100° East 489 563 35,000  Level FlightAware
02:11AM 33.1160 -113.6600 99° East 489 563 35,000  Level FlightAware
02:12AM 33.1030 -113.5290 97° East 491 565 35,000  Level FlightAware
02:12AM 33.0960 -113.4190 94° East 490 564 35,000  Level FlightAware
02:13AM 33.0890 -113.3280 95° East 490 564 35,000  Level FlightAware
02:16AM 33.0560 -112.8740 95° East 492 566 35,000  Level FlightAware
02:16AM 33.0490 -112.7850 95° East 492 566 35,000  Level FlightAware
02:17AM 33.0420 -112.6850 95° East 493 567 35,000  Level FlightAware
02:17AM 33.0330 -112.5780 96° East 493 567 35,000  Level FlightAware
02:20AM 33.0040 -112.2110 95° East 493 567 35,000  Level FlightAware
02:21AM 32.9906 -112.0478 95° East 492 566 35,000  Level Albuquerque Center
02:22AM 32.9756 -111.8814 96° East 492 566 35,000  Level Albuquerque Center
02:23AM 32.9611 -111.7258 96° East 492 566 35,000  Level Albuquerque Center
02:24AM 32.9464 -111.5650 96° East 492 566 35,000  Level Albuquerque Center
02:25AM 32.9314 -111.4042 96° East 492 566 35,000  Level Albuquerque Center
02:26AM 32.9161 -111.2433 96° East 493 567 35,000  Level Albuquerque Center
02:27AM 32.9006 -111.0822 97° East 493 567 35,000  Level Albuquerque Center
02:28AM 32.8847 -110.9211 97° East 493 567 35,000  Level Albuquerque Center
02:29AM 32.8686 -110.7600 97° East 493 567 35,000  Level Albuquerque Center
02:30AM 32.8503 -110.5781 97° East 494 568 35,000  Level Albuquerque Center
02:31AM 32.8339 -110.4169 97° East 494 568 35,000  Level Albuquerque Center
02:32AM 32.8172 -110.2556 97° East 493 567 35,000  Level Albuquerque Center
02:33AM 32.8006 -110.0947 97° East 492 566 35,000  Level Albuquerque Center
02:34AM 32.7833 -109.9342 97° East 493 567 35,000  Level Albuquerque Center
02:35AM 32.7661 -109.7733 97° East 494 568 35,000  Level Albuquerque Center
02:36AM 32.7486 -109.6125 97° East 494 568 35,000  Level Albuquerque Center
02:37AM 32.7311 -109.4517 97° East 495 570 35,000  Level Albuquerque Center
02:38AM 32.7133 -109.2914 97° East 494 568 35,000  Level Albuquerque Center
02:43AM 32.6110 -108.4070 97° East 494 568 35,000  Level FlightAware
02:44AM 32.6020 -108.3340 98° East 494 568 35,000  Level FlightAware
02:45AM 32.5890 -108.2240 98° East 494 568 35,000  Level FlightAware
02:45AM 32.5790 -108.1400 98° East 494 568 35,000  Level FlightAware
02:46AM 32.5700 -108.0570 97° East 494 568 35,000  Level FlightAware
02:47AM 32.5600 -107.9730 98° East 494 568 35,000  Level FlightAware
02:47AM 32.5500 -107.8910 98° East 494 568 35,000  Level FlightAware
02:48AM 32.5400 -107.8090 98° East 494 568 35,000  Level FlightAware
02:48AM 32.5300 -107.7240 98° East 494 568 35,000  Level FlightAware
02:49AM 32.5200 -107.6420 98° East 494 568 35,000  Level FlightAware
02:50AM 32.5110 -107.5600 97° East 494 568 35,000  Level FlightAware
02:50AM 32.4710 -107.2740 99° East 503 579 35,000  Level FlightAware
02:51AM 32.4600 -107.1900 99° East 503 579 35,000  Level FlightAware
02:51AM 32.4470 -107.0910 99° East 504 580 35,000  Level FlightAware
02:52AM 32.4340 -106.9920 99° East 504 580 35,000  Level FlightAware
02:53AM 32.4210 -106.8960 99° East 504 580 35,000  Level FlightAware
02:53AM 32.4090 -106.8020 99° East 503 579 35,000  Level FlightAware
02:54AM 32.3960 -106.7040 99° East 503 579 35,000  Level FlightAware
02:54AM 32.3840 -106.6120 99° East 503 579 35,000  Level FlightAware
02:55AM 32.3690 -106.5020 99° East 503 579 35,000  Level FlightAware
02:56AM 32.3560 -106.4080 99° East 503 579 35,000  Level FlightAware
02:56AM 32.3420 -106.3030 99° East 502 578 35,000  Level FlightAware
02:57AM 32.3280 -106.2070 100° East 502 578 35,000  Level FlightAware
02:57AM 32.3140 -106.1020 99° East 500 575 35,000  Level FlightAware
02:58AM 32.3040 -106.0280 99° East 499 574 35,000  Level FlightAware
02:59AM 32.2920 -105.9380 99° East 499 574 35,000  Level FlightAware
02:59AM 32.2810 -105.8560 99° East 499 574 35,000  Level FlightAware
03:00AM 32.2690 -105.7730 100° East 499 574 35,000  Level FlightAware
03:00AM 32.2625 -105.7333 100° East 498 573 35,000  Level Albuquerque Center
03:00AM 32.2580 -105.6910 99° East 499 574 35,000  Level FlightAware
03:01AM 32.2400 -105.5775 100° East 497 572 35,000  Level Albuquerque Center
03:01AM 32.2470 -105.6060 99° East 499 574 35,000  Level FlightAware
03:02AM 32.2360 -105.5230 99° East 499 574 35,000 -120 Level FlightAware
03:02AM 32.2172 -105.4164 99° East 497 572 34,900  Descending Albuquerque Center
03:02AM 32.2250 -105.4410 99° East 499 574 35,000 60 Climbing FlightAware
03:03AM 32.1936 -105.2556 100° East 497 572 35,000  Level Albuquerque Center
03:05AM 32.1748 -105.1108 100° East  Level FlightAware Approximate
03:09AM 32.0570 -104.3420 100° East 506 582 35,000  Level FlightAware
03:09AM 32.0430 -104.2500 100° East 506 582 35,000  Level FlightAware
03:10AM 32.0310 -104.1670 100° East 506 582 35,000  Level FlightAware
03:10AM 32.0180 -104.0830 100° East 506 582 35,000  Level FlightAware
03:11AM 32.0050 -103.9960 100° East 506 582 35,000  Level FlightAware
03:12AM 31.9930 -103.9120 100° East 506 582 35,000  Level FlightAware
03:12AM 31.9800 -103.8290 100° East 506 582 35,000  Level FlightAware
03:13AM 31.9680 -103.7460 100° East 506 582 35,000  Level FlightAware
03:13AM 31.9560 -103.6630 100° East 506 582 35,000  Level FlightAware
03:14AM 31.9430 -103.5800 100° East 506 582 35,000  Level FlightAware
03:15AM 31.9310 -103.4970 100° East 506 582 35,000  Level FlightAware
03:15AM 31.9180 -103.4140 100° East 506 582 35,000  Level FlightAware
03:16AM 31.9060 -103.3300 100° East 506 582 35,000  Level FlightAware
03:16AM 31.8930 -103.2470 100° East 506 582 35,000  Level FlightAware
03:17AM 31.8810 -103.1640 100° East 506 582 35,000  Level FlightAware
03:18AM 31.8680 -103.0810 100° East 506 582 35,000  Level FlightAware
03:18AM 31.8560 -102.9980 100° East 506 582 35,000  Level FlightAware
03:22AM 31.6990 -102.1350 102° East 504 580 35,000  Level FlightAware
03:23AM 31.6820 -102.0360 101° East 505 581 35,000  Level FlightAware
03:23AM 31.6650 -101.9420 102° East 505 581 35,000  Level FlightAware
03:24AM 31.6510 -101.8560 101° East 505 581 35,000  Level FlightAware
03:24AM 31.6330 -101.7580 102° East 505 581 35,000  Level FlightAware
03:25AM 31.6170 -101.6630 101° East 504 580 35,000  Level FlightAware
03:26AM 31.6000 -101.5660 102° East 504 580 35,000  Level FlightAware
03:26AM 31.5830 -101.4740 102° East 505 581 35,000  Level FlightAware
03:27AM 31.5670 -101.3830 102° East 505 581 35,000  Level FlightAware
03:27AM 31.5510 -101.2930 102° East 505 581 35,000  Level FlightAware
03:28AM 31.5340 -101.1960 102° East 504 580 35,000  Level FlightAware
03:28AM 31.5190 -101.1130 102° East 503 579 35,000  Level FlightAware
03:29AM 31.4990 -101.0060 102° East 503 579 35,000  Level FlightAware
03:30AM 31.4840 -100.9220 102° East 504 580 35,000  Level FlightAware
03:30AM 31.4660 -100.8240 102° East 505 581 35,000  Level FlightAware
03:31AM 31.4490 -100.7280 102° East 505 581 35,000  Level FlightAware
03:31AM 31.4320 -100.6370 102° East 506 582 35,000  Level FlightAware
03:32AM 31.4150 -100.5450 102° East 506 582 35,000  Level FlightAware
03:33AM 31.3970 -100.4480 102° East 506 582 35,000  Level FlightAware
03:33AM 31.3790 -100.3500 102° East 506 582 35,000  Level FlightAware
03:34AM 31.3620 -100.2640 103° East 506 582 35,000  Level FlightAware
03:34AM 31.3450 -100.1720 102° East 507 583 35,000  Level FlightAware
03:35AM 31.3260 -100.0730 103° East 506 582 35,000  Level FlightAware
03:35AM 31.3090 -99.9830 102° East 507 583 35,000  Level FlightAware
03:36AM 31.2910 -99.8870 102° East 507 583 35,000  Level FlightAware
03:37AM 31.2730 -99.7920 102° East 506 582 35,000  Level FlightAware
03:37AM 31.2540 -99.6940 103° East 506 582 35,000  Level FlightAware
03:38AM 31.2380 -99.6110 103° East 504 580 35,000  Level FlightAware
03:38AM 31.2190 -99.5140 103° East 503 579 35,000  Level FlightAware
03:39AM 31.2010 -99.4180 102° East 502 578 35,000  Level FlightAware
03:40AM 31.1820 -99.3240 103° East 501 577 35,000  Level FlightAware
03:40AM 31.1660 -99.2400 103° East 500 575 35,000  Level FlightAware
03:41AM 31.1470 -99.1440 103° East 499 574 35,000  Level FlightAware
03:41AM 31.1290 -99.0520 103° East 500 575 35,000  Level FlightAware
03:42AM 31.1100 -98.9560 103° East 499 574 35,000  Level FlightAware
03:42AM 31.0930 -98.8720 103° East 499 574 35,000  Level FlightAware
03:43AM 31.0794 -98.8049 103° East 500 575 35,000  Level FlightAware ADS-B
03:44AM 31.0550 -98.6850 103° East 501 577 35,000  Level FlightAware
03:44AM 31.0380 -98.6010 103° East 501 577 35,000  Level FlightAware
03:45AM 31.0180 -98.4990 103° East 501 577 35,000  Level FlightAware
03:45AM 30.9990 -98.4070 104° East 500 575 35,000  Level FlightAware
03:46AM 30.9780 -98.3060 104° East 499 574 35,000  Level FlightAware
03:47AM 30.9590 -98.2110 103° East 498 573 35,000  Level FlightAware
03:47AM 30.9400 -98.1160 103° East 498 573 35,000  Level FlightAware
03:48AM 30.9220 -98.0330 104° East 498 573 35,000  Level FlightAware
03:48AM 30.9020 -97.9370 104° East 498 573 35,000  Level FlightAware
03:49AM 30.8830 -97.8410 103° East 498 573 35,000  Level FlightAware
03:50AM 30.8650 -97.7590 104° East 497 572 35,000  Level FlightAware
03:50AM 30.8598 -97.7326 103° East 498 573 35,000  Level FlightAware ADS-B
03:50AM 30.8425 -97.6504 104° East 497 572 35,000  Level FlightAware ADS-B
03:51AM 30.8260 -97.5730 104° East 497 572 35,000  Level FlightAware
03:51AM 30.8077 -97.4855 104° East 496 571 35,000  Level FlightAware ADS-B
03:52AM 30.7890 -97.3960 104° East 496 571 35,000  Level FlightAware
03:52AM 30.7710 -97.3130 104° East 495 570 35,000  Level FlightAware
03:53AM 30.7500 -97.2140 104° East 495 570 35,000  Level FlightAware
03:54AM 30.7300 -97.1210 104° East 496 571 35,000  Level FlightAware
03:54AM 30.7100 -97.0300 104° East 497 572 35,000  Level FlightAware
03:55AM 30.6920 -96.9430 104° East 496 571 35,000  Level FlightAware
03:55AM 30.6710 -96.8470 104° East 498 573 35,000  Level FlightAware
03:56AM 30.6510 -96.7550 104° East 500 575 35,000  Level FlightAware
03:57AM 30.6130 -96.5810 104° East 503 579 35,000  Level FlightAware
03:58AM 30.5920 -96.4830 104° East 504 580 35,000  Level FlightAware
03:58AM 30.5700 -96.3870 105° East 504 580 35,000  Level FlightAware
03:59AM 30.5520 -96.3040 104° East 504 580 35,000  Level FlightAware
03:59AM 30.5330 -96.2190 105° East 504 580 35,000  Level FlightAware
04:00AM 30.5100 -96.1170 105° East 503 579 35,000  Level FlightAware
04:01AM 30.4880 -96.0220 105° East 502 578 35,000  Level FlightAware
04:01AM 30.4700 -95.9380 104° East 501 577 35,000  Level FlightAware
04:02AM 30.4490 -95.8470 105° East 501 577 35,000  Level FlightAware
04:02AM 30.4300 -95.7620 105° East 499 574 35,000  Level FlightAware
04:03AM 30.4080 -95.6650 105° East 498 573 35,000  Level FlightAware
04:04AM 30.3870 -95.5730 105° East 497 572 35,000  Level FlightAware
04:04AM 30.3680 -95.4890 105° East 497 572 35,000  Level FlightAware
04:05AM 30.3460 -95.3920 105° East 498 573 35,000  Level FlightAware
04:05AM 30.3250 -95.3030 105° East 496 571 35,000  Level FlightAware
04:06AM 30.3030 -95.2070 105° East 495 570 35,000  Level FlightAware
04:07AM 30.2640 -95.0370 105° East 493 567 35,000  Level FlightAware
04:08AM 30.2420 -94.9440 105° East 493 567 35,000  Level FlightAware
04:08AM 30.2190 -94.8480 105° East 493 567 35,000  Level FlightAware
04:09AM 30.2010 -94.7710 105° East 492 566 35,000  Level FlightAware
04:09AM 30.1800 -94.6800 105° East 492 566 35,000  Level FlightAware
04:10AM 30.1570 -94.5850 106° East 491 565 35,000  Level FlightAware
04:11AM 30.1400 -94.5100 105° East 490 564 35,000  Level FlightAware
04:11AM 30.1160 -94.4100 105° East 489 563 35,000  Level FlightAware
04:12AM 30.0970 -94.3310 106° East 488 562 35,000  Level FlightAware
04:12AM 30.0730 -94.2310 105° East 488 562 35,000  Level FlightAware
04:13AM 30.0520 -94.1410 105° East 488 562 35,000  Level FlightAware
04:14AM 30.0300 -94.0510 106° East 489 563 35,000  Level FlightAware
04:14AM 30.0060 -93.9550 106° East 488 562 35,000  Level FlightAware
04:15AM 29.9850 -93.8670 105° East 488 562 35,000  Level FlightAware
04:15AM 29.9630 -93.7750 105° East 490 564 35,000  Level FlightAware
04:16AM 29.9400 -93.6840 106° East 489 563 35,000  Level FlightAware
04:17AM 29.9200 -93.6000 105° East 489 563 35,000  Level FlightAware
04:17AM 29.9000 -93.5180 106° East 488 562 35,000  Level FlightAware
04:18AM 29.8760 -93.4220 106° East 488 562 35,000  Level FlightAware
04:18AM 29.8560 -93.3400 106° East 487 560 35,000  Level FlightAware
04:19AM 29.8340 -93.2510 106° East 486 559 35,000  Level FlightAware
04:19AM 29.8150 -93.1750 106° East 486 559 35,000  Level FlightAware
04:20AM 29.7770 -93.0240 106° East 483 556 35,000  Level FlightAware
04:21AM 29.7430 -92.8870 106° East 481 554 35,000  Level FlightAware
04:22AM 29.7230 -92.8110 107° East 481 554 35,000  Level FlightAware
04:23AM 29.7030 -92.7290 106° East 481 554 35,000  Level FlightAware
04:23AM 29.6770 -92.6270 106° East 481 554 35,000  Level FlightAware
04:24AM 29.6580 -92.5490 106° East 481 554 35,000  Level FlightAware
04:25AM 29.6150 -92.3870 107° East 480 552 35,000  Level FlightAware
04:25AM 29.6010 -92.3300 106° East 480 552 35,000  Level FlightAware
04:26AM 29.5530 -92.1430 106° East 480 552 35,000  Level FlightAware
04:27AM 29.5310 -92.0570 106° East 479 551 35,000  Level FlightAware
04:28AM 29.5040 -91.9560 107° East 478 550 35,000  Level FlightAware
04:29AM 29.4890 -91.8990 107° East 477 549 35,000  Level FlightAware
04:29AM 29.4520 -91.7570 107° East 473 544 35,000  Level FlightAware
04:30AM 29.4270 -91.6590 106° East 474 545 35,000  Level FlightAware
04:30AM 29.4040 -91.5720 107° East 473 544 35,000  Level FlightAware
04:31AM 29.3770 -91.4680 107° East 474 545 35,000  Level FlightAware
04:32AM 29.3600 -91.4020 106° East 473 544 35,000  Level FlightAware
04:32AM 29.3610 -91.4090 279° West 473 544 35,000  Level FlightAware
04:33AM 29.3420 -91.3330 106° East 473 544 35,000  Level FlightAware
04:34AM 29.3240 -91.2590 106° East 473 544 35,000  Level FlightAware
04:34AM 29.3050 -91.1850 106° East 473 544 35,000  Level FlightAware
04:35AM 29.2870 -91.1110 106° East 473 544 35,000  Level FlightAware
04:35AM 29.2680 -91.0370 106° East 473 544 35,000  Level FlightAware
04:36AM 29.2500 -90.9640 106° East 473 544 35,000  Level FlightAware
04:37AM 29.2320 -90.8900 106° East 473 544 35,000  Level FlightAware
04:37AM 29.2130 -90.8160 106° East 473 544 35,000  Level FlightAware
04:38AM 29.1950 -90.7420 106° East 473 544 35,000  Level FlightAware
04:38AM 29.1760 -90.6690 107° East 473 544 35,000  Level FlightAware
04:39AM 29.0670 -90.3200 110° East 475 547 35,000  Level FlightAware
04:40AM 29.0400 -90.2190 107° East 475 547 35,000  Level FlightAware
04:40AM 29.0200 -90.1460 107° East 475 547 35,000  Level FlightAware
04:41AM 29.0610 -90.2970 287° West 35,000  Level FlightAware
04:41AM 28.9780 -89.9980 108° East 472 543 35,000 60 Level FlightAware
04:42AM 28.9550 -89.9170 108° East 471 542 35,100 480 Climbing FlightAware
04:42AM 28.9330 -89.8380 108° East 469 540 35,600 600 Climbing FlightAware
04:43AM 28.9080 -89.7460 107° East 470 541 35,900 360 Climbing FlightAware
04:44AM 28.8900 -89.6800 107° East 471 542 36,100 660 Climbing FlightAware
04:45AM 28.8560 -89.5580 108° East 469 540 36,800 540 Climbing FlightAware
04:45AM 28.8550 -89.5540 106° East 469 540 37,000 120 Climbing FlightAware
04:46AM 28.8000 -89.3630 108° East 471 542 37,000  Level FlightAware
04:46AM 28.7800 -89.2920 108° East 471 542 37,000  Level FlightAware
04:47AM 28.7590 -89.2180 108° East 469 540 37,000  Level FlightAware
04:48AM 28.7320 -89.1240 108° East 467 537 37,000  Level FlightAware
04:48AM 28.7080 -89.0400 108° East 466 536 37,000  Level FlightAware
04:49AM 28.6870 -88.9660 108° East 465 535 37,000  Level FlightAware
04:49AM 28.6620 -88.8800 108° East 465 535 37,000  Level FlightAware
04:50AM 28.6390 -88.8010 108° East 466 536 37,000  Level FlightAware
04:50AM 28.6170 -88.7240 108° East 466 536 37,000  Level FlightAware
04:51AM 28.5930 -88.6390 108° East 467 537 37,000  Level FlightAware
04:52AM 28.5680 -88.5550 109° East 467 537 37,000  Level FlightAware
04:52AM 28.5440 -88.4710 108° East 466 536 37,000  Level FlightAware
04:53AM 28.5190 -88.3870 109° East 465 535 37,000  Level FlightAware
04:53AM 28.5000 -88.3220 108° East 464 534 37,000  Level FlightAware
04:54AM 28.4740 -88.2330 108° East 464 534 37,000  Level FlightAware
04:55AM 28.4500 -88.1480 108° East 464 534 37,000  Level FlightAware
04:55AM 28.4280 -88.0740 109° East 463 533 37,000  Level FlightAware
04:56AM 28.4030 -87.9920 109° East 464 534 37,000  Level FlightAware
04:56AM 28.3780 -87.9070 108° East 464 534 37,000  Level FlightAware
04:57AM 28.3560 -87.8320 108° East 464 534 37,000  Level FlightAware
04:57AM 28.3320 -87.7510 109° East 463 533 37,000  Level FlightAware
04:58AM 28.3110 -87.6820 109° East 464 534 37,000  Level FlightAware
04:59AM 28.2830 -87.5890 109° East 463 533 37,000  Level FlightAware
04:59AM 28.2600 -87.5070 108° East 463 533 37,000  Level FlightAware
05:00AM 28.2400 -87.4360 108° East 463 533 37,000  Level FlightAware
05:00AM 28.2190 -87.3650 109° East 463 533 37,000  Level FlightAware
05:01AM 28.1990 -87.2950 108° East 463 533 37,000  Level FlightAware
05:02AM 28.1590 -87.1760 111° Southeast 457 526 37,000  Level FlightAware
05:02AM 28.1380 -87.1030 108° East 457 526 37,000  Level FlightAware
05:03AM 28.1170 -87.0310 108° East 457 526 37,000  Level FlightAware
05:03AM 28.0970 -86.9610 108° East 457 526 37,000  Level FlightAware
05:04AM 28.0780 -86.8950 108° East 457 526 37,000  Level FlightAware
05:05AM 28.0370 -86.7750 111° Southeast 459 528 37,000  Level FlightAware
05:05AM 28.0130 -86.6940 109° East 459 528 37,000  Level FlightAware
05:06AM 27.9900 -86.6200 109° East 459 528 37,000  Level FlightAware
05:06AM 27.9620 -86.5310 110° East 459 528 37,000  Level FlightAware
05:07AM 27.9410 -86.4610 109° East 459 528 37,000  Level FlightAware
05:08AM 27.9120 -86.3690 110° East 458 527 37,000  Level FlightAware
05:08AM 27.8880 -86.2930 110° East 458 527 37,000  Level FlightAware
05:09AM 27.8560 -86.1910 110° East 457 526 37,000  Level FlightAware
05:09AM 27.8360 -86.1460 117° Southeast 454 522 37,000  Level FlightAware
05:10AM 27.7940 -86.0770 125° Southeast 456 525 37,000  Level FlightAware
05:10AM 27.7570 -86.0140 124° Southeast 456 525 37,000  Level FlightAware
05:11AM 27.7200 -85.9520 124° Southeast 456 525 37,000  Level FlightAware
05:12AM 27.6840 -85.8920 124° Southeast 456 525 37,000  Level FlightAware
05:12AM 27.6480 -85.8310 124° Southeast 456 525 37,000  Level FlightAware
05:13AM 27.5790 -85.7240 126° Southeast 37,000  Level FlightAware
05:13AM 27.5380 -85.6570 125° Southeast 456 525 37,000  Level FlightAware
05:14AM 27.4980 -85.5910 124° Southeast 456 525 37,000  Level FlightAware
05:15AM 27.4540 -85.5200 125° Southeast 457 526 37,000  Level FlightAware
05:15AM 27.4100 -85.4460 124° Southeast 452 520 37,000  Level FlightAware
05:16AM 27.3720 -85.3820 124° Southeast 451 519 37,000  Level FlightAware
05:16AM 27.3340 -85.3170 123° Southeast 451 519 37,000  Level FlightAware
05:17AM 27.2940 -85.2450 122° Southeast 451 519 37,000  Level FlightAware
05:18AM 27.2600 -85.1840 122° Southeast 451 519 37,000  Level FlightAware
05:18AM 27.2020 -85.0870 124° Southeast 458 527 37,000  Level FlightAware
05:19AM 27.1610 -85.0150 123° Southeast 458 527 37,000  Level FlightAware
05:19AM 27.1280 -84.9570 123° Southeast 457 526 37,000  Level FlightAware
05:20AM 27.0830 -84.8780 123° Southeast 457 526 37,000  Level FlightAware
05:20AM 27.0470 -84.8140 122° Southeast 455 524 37,000  Level FlightAware
05:21AM 26.9970 -84.7240 122° Southeast 455 524 37,000  Level FlightAware
05:22AM 26.9590 -84.6560 122° Southeast 455 524 37,000  Level FlightAware
05:23AM 26.9080 -84.5630 122° Southeast 456 525 37,000  Level FlightAware
05:23AM 26.8750 -84.5010 121° Southeast 456 525 37,000  Level FlightAware
05:24AM 26.8410 -84.4390 122° Southeast 456 525 37,000  Level FlightAware
05:25AM 26.7450 -84.2660 122° Southeast 467 537 37,100  Climbing FlightAware
05:26AM 26.6900 -84.1620 121° Southeast 466 536 37,100  Level FlightAware
05:26AM 26.6560 -84.0990 121° Southeast 466 536 37,100  Level FlightAware
05:27AM 26.6210 -84.0340 121° Southeast 466 536 37,100  Level FlightAware
05:28AM 26.5860 -83.9690 121° Southeast 466 536 37,100 -120 Level FlightAware
05:28AM 26.5150 -83.8480 123° Southeast 465 535 37,000 -120 Descending FlightAware
05:29AM 26.4760 -83.7780 122° Southeast 465 535 37,000  Level FlightAware
05:29AM 26.4410 -83.7150 122° Southeast 465 535 37,000  Level FlightAware
05:30AM 26.4080 -83.6530 121° Southeast 465 535 37,000  Level FlightAware
05:31AM 26.3740 -83.5900 121° Southeast 465 535 37,000  Level FlightAware
05:31AM 26.3400 -83.5270 121° Southeast 465 535 37,000  Level FlightAware
05:32AM 26.3060 -83.4650 121° Southeast 465 535 37,000  Level FlightAware
05:32AM 26.2720 -83.4020 121° Southeast 465 535 37,000  Level FlightAware
05:33AM 26.2380 -83.3390 121° Southeast 465 535 37,000 -240 Level FlightAware
05:33AM 26.2780 -83.2230 69° East 37,000 -300 Level FlightAware
05:35AM 26.2480 -82.9890 98° East 37,000 -300 Level FlightAware
05:35AM 26.2420 -82.8970 94° East 466 536 36,400 -960 Descending FlightAware
05:36AM 26.2370 -82.8110 94° East 466 536 35,800 -960 Descending FlightAware
05:37AM 26.2310 -82.7250 94° East 474 545 35,200 -1,620 Descending FlightAware
05:37AM 26.2250 -82.6390 94° East 480 552 34,000 -2,520 Descending FlightAware
05:38AM 26.2200 -82.5520 94° East 485 558 32,400 -2,760 Descending FlightAware
05:38AM 26.2130 -82.4500 94° East 486 559 30,600 -2,520 Descending FlightAware
05:39AM 26.2080 -82.3780 94° East 483 556 29,500 -2,220 Descending FlightAware
05:40AM 26.2020 -82.2900 94° East 479 551 28,200 -2,280 Descending FlightAware
05:40AM 26.1960 -82.2060 95° East 475 547 26,900 -2,280 Descending FlightAware
05:41AM 26.1900 -82.1090 94° East 469 540 25,400 -2,340 Descending FlightAware
05:41AM 26.1850 -82.0380 94° East 464 534 24,200 -2,400 Descending FlightAware
05:42AM 26.1790 -81.9540 95° East 452 520 22,800 -2,340 Descending FlightAware
05:42AM 26.1730 -81.8630 94° East 441 507 21,300 -2,280 Descending FlightAware
05:43AM 26.1670 -81.7840 95° East 431 496 20,000 -2,220 Descending FlightAware
05:44AM 26.1620 -81.7180 95° East 422 486 18,900 -2,160 Descending FlightAware
05:44AM 26.1560 -81.6330 94° East 411 473 17,500 -2,160 Descending FlightAware
05:45AM 26.1510 -81.5690 95° East 403 464 16,400 -2,160 Descending FlightAware
05:45AM 26.1450 -81.4890 95° East 393 452 15,000 -2,100 Descending FlightAware
05:46AM 26.1410 -81.4280 94° East 387 445 14,000 -2,040 Descending FlightAware
05:47AM 26.1360 -81.3610 95° East 380 437 12,800 -1,980 Descending FlightAware
05:47AM 26.1300 -81.2920 96° East 372 428 11,700 -1,800 Descending FlightAware
05:48AM 26.1250 -81.2180 94° East 359 413 10,600 -1,200 Descending FlightAware
05:48AM 26.1210 -81.1640 95° East 338 389 10,300 -780 Descending FlightAware
05:49AM 26.1160 -81.1060 95° East 318 366 9,800 -960 Descending FlightAware
05:49AM 26.1140 -81.0810 95° East 315 362 9,500 -720 Descending FlightAware
05:49AM 26.1130 -81.0490 92° East 296 341 9,400 -420 Descending FlightAware
05:50AM 26.1120 -81.0120 92° East 292 336 9,200 -480 Descending FlightAware
05:50AM 26.1100 -80.9740 93° East 290 334 9,000 -540 Descending FlightAware
05:51AM 26.1090 -80.9440 92° East 290 334 8,800 -780 Descending FlightAware
05:51AM 26.1060 -80.9000 94° East 287 330 8,400 -960 Descending FlightAware
05:51AM 26.1050 -80.8710 92° East 284 327 8,000 -1,200 Descending FlightAware
05:52AM 26.1030 -80.8340 93° East 281 323 7,500 -1,260 Descending FlightAware
05:52AM 26.1010 -80.8070 95° East 280 322 7,100 -1,260 Descending FlightAware
05:52AM 26.1000 -80.7780 92° East 277 319 6,700 -1,080 Descending FlightAware
05:53AM 26.0980 -80.7490 94° East 269 310 6,400 -1,200 Descending FlightAware
05:53AM 26.0970 -80.7210 92° East 268 308 5,900 -1,380 Descending FlightAware
05:54AM 26.0950 -80.6880 94° East 266 306 5,400 -1,200 Descending FlightAware
05:54AM 26.0950 -80.6730 90° East 265 305 5,200 -1,200 Descending FlightAware
05:54AM 26.0930 -80.6400 94° East 265 305 4,700 -1,260 Descending FlightAware
05:55AM 26.0910 -80.6120 95° East 262 302 4,300 -1,260 Descending FlightAware
05:55AM 26.0900 -80.5860 92° East 258 297 3,900 -1,200 Descending FlightAware
05:55AM 26.0890 -80.5660 93° East 257 296 3,600 -1,380 Descending FlightAware
05:55AM 26.0850 -80.5390 99° East 256 295 3,100 -900 Descending FlightAware
05:56AM 26.0810 -80.5130 100° East 258 297 3,000 -180 Descending FlightAware
05:56AM 26.0780 -80.4880 98° East 260 299 3,000  Level FlightAware
05:57AM 26.0770 -80.4550 92° East 248 285 3,000  Level FlightAware
05:57AM 26.0770 -80.4290 90° East 244 281 3,000  Level FlightAware
05:57AM 26.0780 -80.4060 87° East 243 280 3,000  Level FlightAware
05:58AM 26.0790 -80.3730 88° East 243 280 3,000  Level FlightAware
05:58AM 26.0790 -80.3550 90° East 221 254 3,000 -240 Level FlightAware
05:58AM 26.0780 -80.3380 94° East 210 242 2,900 -900 Descending FlightAware
05:59AM 26.0780 -80.3120 90° East 207 238 2,400 -1,080 Descending FlightAware
05:59AM 26.0780 -80.2910 90° East 201 231 2,100 -1,080 Descending FlightAware
05:59AM 26.0780 -80.2750 90° East 198 228 1,800 -900 Descending FlightAware
06:00AM 26.0780 -80.2510 90° East 185 213 1,500 -960 Descending FlightAware
06:00AM 26.0770 -80.2320 93° East 165 190 1,100 -960 Descending FlightAware
06:00AM 26.0770 -80.2140 90° East 142 163 800 -660 Descending FlightAware
06:01AM 26.0770 -80.2020 90° East 138 159 700 -600 Descending FlightAware
06:01AM 26.0770 -80.1950 90° East 136 157 500 -780 Descending FlightAware
06:01AM 26.0770 -80.1750 90° East 135 155 200 -360 Descending FlightAware
06:02AM 26.0770 -80.1580 90° East 135 155 200  Level FlightAware
06:09AM 26.0667 -80.1500 180° South  Level FlightAware Approximate